Time;durP1;ratioP1;P1;durP2;ratioP2;P2;SDS_P1;SDS_P2;PMS_P1;PMS_P2;Temp;Humidity;BMP_temperature;BMP_pressure;BME280_temperature;BME280_humidity;BME280_pressure;Samples;Min_cycle;Max_cycle;Signal;HPM_P1;HPM_P2
2023/07/16 00:00:11;;;;;;;5.10;1.90;;;18.50;99.90;;;;;;5015615;28;20308;-92
2023/07/16 00:02:38;;;;;;;3.97;1.83;;;18.50;99.90;;;;;;5015517;28;20180;-92
2023/07/16 00:05:04;;;;;;;5.77;1.93;;;18.50;99.90;;;;;;5013395;28;20647;-91
2023/07/16 00:07:29;;;;;;;4.13;1.90;;;18.50;99.90;;;;;;4996620;28;20721;-92
2023/07/16 00:09:55;;;;;;;4.57;1.73;;;18.60;99.90;;;;;;5011294;28;20201;-91
2023/07/16 00:12:20;;;;;;;5.87;1.90;;;18.50;99.90;;;;;;5010994;28;20231;-91
2023/07/16 00:14:47;;;;;;;4.50;1.70;;;18.70;99.90;;;;;;5012917;28;20702;-91
2023/07/16 00:17:12;;;;;;;8.50;2.90;;;18.70;99.90;;;;;;5019669;28;20275;-92
2023/07/16 00:19:38;;;;;;;4.77;1.90;;;18.50;99.90;;;;;;5016798;28;20606;-91
2023/07/16 00:22:04;;;;;;;4.13;1.90;;;18.30;99.90;;;;;;5014216;28;20639;-92
2023/07/16 00:24:29;;;;;;;6.93;1.90;;;18.50;99.90;;;;;;5013363;28;20271;-92
2023/07/16 00:26:55;;;;;;;3.60;2.03;;;18.60;99.90;;;;;;5014146;28;20207;-92
2023/07/16 00:29:20;;;;;;;5.17;1.97;;;18.40;99.90;;;;;;5014024;28;20201;-92
2023/07/16 00:31:46;;;;;;;9.63;2.07;;;18.60;99.90;;;;;;5015028;28;20311;-92
2023/07/16 00:34:12;;;;;;;7.43;2.20;;;18.40;99.90;;;;;;5013165;28;20185;-92
2023/07/16 00:36:38;;;;;;;5.53;1.90;;;18.50;99.90;;;;;;5013521;28;20558;-92
2023/07/16 00:39:04;;;;;;;4.30;2.17;;;18.40;99.90;;;;;;5014388;28;20263;-92
2023/07/16 00:41:29;;;;;;;6.30;2.03;;;18.00;99.90;;;;;;5014311;28;20275;-92
2023/07/16 00:43:55;;;;;;;9.27;2.07;;;18.40;99.90;;;;;;5013504;28;20185;-92
2023/07/16 00:46:21;;;;;;;6.50;2.03;;;18.40;99.90;;;;;;5014193;28;20181;-91
2023/07/16 00:48:47;;;;;;;3.23;1.77;;;18.40;99.90;;;;;;5014624;28;20268;-92
2023/07/16 00:51:14;;;;;;;4.50;1.77;;;18.40;99.90;;;;;;5014615;28;20211;-92
2023/07/16 00:53:41;;;;;;;4.93;1.73;;;18.50;99.90;;;;;;5013563;28;20312;-91
2023/07/16 00:56:08;;;;;;;7.57;2.20;;;18.30;99.90;;;;;;5011829;28;20179;-92
2023/07/16 00:58:34;;;;;;;7.87;1.80;;;18.20;99.90;;;;;;5013970;28;20173;-92
2023/07/16 01:00:59;;;;;;;8.10;2.17;;;18.20;99.90;;;;;;5013822;28;20726;-92
2023/07/16 01:03:25;;;;;;;5.33;1.77;;;18.30;99.90;;;;;;5014537;28;20556;-92
2023/07/16 01:06:00;;;;;;;5.50;2.07;;;18.50;99.90;;;;;;5013733;28;20690;-92
2023/07/16 01:08:39;;;;;;;3.77;1.93;;;18.00;99.90;;;;;;5014426;28;20164;-92
2023/07/16 01:11:06;;;;;;;4.67;2.23;;;18.20;99.90;;;;;;5013667;28;20205;-92
2023/07/16 01:13:32;;;;;;;5.23;2.60;;;18.20;99.90;;;;;;5013716;28;20192;-91
2023/07/16 01:15:57;;;;;;;8.53;2.23;;;18.10;99.90;;;;;;5013094;28;20670;-92
2023/07/16 01:18:23;;;;;;;5.83;2.30;;;18.70;99.90;;;;;;5015507;28;20174;-92
2023/07/16 01:20:49;;;;;;;3.93;2.17;;;18.40;99.90;;;;;;5013884;28;20264;-92
2023/07/16 01:23:47;;;;;;;4.60;2.00;;;18.20;99.90;;;;;;5014001;28;20173;-92
2023/07/16 01:26:19;;;;;;;5.67;2.10;;;17.90;99.90;;;;;;5013821;28;20173;-92
2023/07/16 01:29:07;;;;;;;6.07;1.90;;;18.20;99.90;;;;;;5014011;28;20650;-92
2023/07/16 01:31:34;;;;;;;3.27;1.50;;;18.00;99.90;;;;;;5014114;28;20196;-92
2023/07/16 01:34:00;;;;;;;4.53;1.80;;;18.00;99.90;;;;;;5013214;28;20267;-92
2023/07/16 01:36:28;;;;;;;2.10;1.77;;;17.90;99.90;;;;;;5014107;28;20181;-92
2023/07/16 01:38:53;;;;;;;9.00;2.23;;;18.00;99.90;;;;;;5014354;28;20200;-92
2023/07/16 01:41:19;;;;;;;6.57;1.73;;;17.80;99.90;;;;;;5014301;28;20239;-92
2023/07/16 01:43:45;;;;;;;4.40;1.67;;;17.90;99.90;;;;;;5013368;28;20205;-92
2023/07/16 01:46:11;;;;;;;5.20;2.10;;;19.00;99.90;;;;;;5014434;28;20268;-91
2023/07/16 01:48:37;;;;;;;8.83;1.80;;;17.70;99.90;;;;;;5014238;28;20188;-92
2023/07/16 01:51:04;;;;;;;6.83;2.20;;;17.90;99.90;;;;;;5014699;28;20201;-92
2023/07/16 01:53:31;;;;;;;4.00;2.27;;;17.70;99.90;;;;;;5013424;28;20173;-91
2023/07/16 01:55:57;;;;;;;4.17;1.73;;;17.60;99.90;;;;;;5014111;28;20192;-92
2023/07/16 01:58:22;;;;;;;3.43;2.03;;;17.50;99.90;;;;;;5013545;28;20173;-92
2023/07/16 02:00:50;;;;;;;5.47;2.20;;;17.70;99.90;;;;;;5013338;28;20247;-92
2023/07/16 02:03:15;;;;;;;7.30;3.10;;;17.70;99.90;;;;;;5018596;28;20176;-91
2023/07/16 02:05:41;;;;;;;8.67;3.00;;;17.70;99.90;;;;;;5022652;28;20311;-92
2023/07/16 02:08:07;;;;;;;10.00;3.03;;;17.70;99.90;;;;;;5013304;28;20177;-92
2023/07/16 02:10:32;;;;;;;9.07;3.30;;;17.70;99.90;;;;;;5013218;28;20201;-92
2023/07/16 02:12:58;;;;;;;9.63;3.07;;;17.60;99.90;;;;;;5012958;28;20226;-92
2023/07/16 02:15:23;;;;;;;6.97;2.87;;;17.60;99.90;;;;;;5012476;28;20181;-92
2023/07/16 02:17:49;;;;;;;6.73;2.30;;;17.70;99.90;;;;;;5013293;28;20201;-92
2023/07/16 02:20:14;;;;;;;5.37;2.40;;;17.70;99.90;;;;;;5013474;28;20201;-92
2023/07/16 02:22:40;;;;;;;4.33;2.57;;;17.80;99.90;;;;;;5013592;28;20188;-92
2023/07/16 02:25:06;;;;;;;3.47;2.30;;;17.60;99.90;;;;;;5012908;28;20631;-92
2023/07/16 02:27:32;;;;;;;6.27;2.47;;;17.70;99.90;;;;;;5013235;28;20188;-91
2023/07/16 02:29:58;;;;;;;9.07;3.00;;;17.70;99.90;;;;;;5015572;28;20211;-92
2023/07/16 02:32:23;;;;;;;12.77;2.60;;;17.80;99.90;;;;;;5016770;28;20208;-92
2023/07/16 02:34:49;;;;;;;7.87;2.90;;;17.60;99.90;;;;;;5015896;28;20189;-91
2023/07/16 02:37:15;;;;;;;6.03;2.90;;;17.60;99.90;;;;;;5016558;28;20205;-92
2023/07/16 02:39:42;;;;;;;10.73;2.50;;;17.60;99.90;;;;;;5016779;28;20572;-92
2023/07/16 02:42:08;;;;;;;5.77;2.73;;;17.60;99.90;;;;;;5016325;28;20181;-91
2023/07/16 02:44:35;;;;;;;5.60;2.40;;;17.60;99.90;;;;;;5015141;28;20279;-91
2023/07/16 02:47:01;;;;;;;4.83;2.10;;;17.50;99.90;;;;;;5016959;28;20185;-92
2023/07/16 02:49:26;;;;;;;5.27;2.07;;;17.60;99.90;;;;;;5015874;28;20293;-92
2023/07/16 02:51:52;;;;;;;3.90;2.07;;;18.00;99.90;;;;;;5016572;28;20211;-92
2023/07/16 02:54:17;;;;;;;7.63;2.23;;;17.40;99.90;;;;;;5015933;28;20173;-91
2023/07/16 02:56:43;;;;;;;4.97;2.60;;;17.50;99.90;;;;;;5017179;28;20179;-92
2023/07/16 02:59:09;;;;;;;3.90;1.97;;;17.50;99.90;;;;;;5015282;28;20205;-92
2023/07/16 03:01:34;;;;;;;7.37;1.90;;;17.50;99.90;;;;;;5016366;28;20173;-92
2023/07/16 03:04:00;;;;;;;5.93;2.23;;;17.40;99.90;;;;;;5015656;28;20187;-92
2023/07/16 03:06:25;;;;;;;7.20;2.37;;;17.40;99.90;;;;;;5015685;28;20185;-92
2023/07/16 03:08:51;;;;;;;4.70;2.07;;;17.90;99.90;;;;;;5014936;28;20177;-92
2023/07/16 03:11:16;;;;;;;6.23;2.03;;;17.40;99.90;;;;;;5014998;28;20675;-92
2023/07/16 03:13:42;;;;;;;6.47;1.83;;;17.60;99.90;;;;;;5014751;28;20181;-92
2023/07/16 03:16:08;;;;;;;8.37;1.80;;;17.40;99.90;;;;;;5014764;28;20226;-92
2023/07/16 03:18:33;;;;;;;5.47;1.73;;;17.30;99.90;;;;;;5014986;28;20323;-92
2023/07/16 03:20:59;;;;;;;5.73;1.73;;;17.70;99.90;;;;;;5014959;28;20204;-92
2023/07/16 03:23:25;;;;;;;6.57;1.90;;;17.30;99.90;;;;;;5016474;28;20319;-91
2023/07/16 03:25:51;;;;;;;10.43;2.40;;;17.30;99.90;;;;;;5014798;28;20235;-92
2023/07/16 03:28:17;;;;;;;8.93;1.60;;;17.20;99.90;;;;;;5014864;28;20215;-91
2023/07/16 03:30:50;;;;;;;3.63;1.87;;;17.70;99.90;;;;;;5015866;28;20255;-92
2023/07/16 03:33:16;;;;;;;6.23;2.03;;;17.20;99.90;;;;;;5014812;28;20673;-91
2023/07/16 03:35:43;;;;;;;7.17;2.10;;;17.40;99.90;;;;;;5014463;28;20183;-91
2023/07/16 03:38:10;;;;;;;5.40;2.00;;;17.20;99.90;;;;;;5014603;28;20259;-92
2023/07/16 03:40:35;;;;;;;6.83;1.87;;;18.40;99.90;;;;;;5013462;28;20201;-92
2023/07/16 03:43:01;;;;;;;8.67;2.03;;;17.10;99.90;;;;;;5014410;28;20181;-91
2023/07/16 03:45:26;;;;;;;4.97;1.90;;;17.10;99.90;;;;;;5014281;28;20219;-92
2023/07/16 03:47:52;;;;;;;3.80;2.17;;;17.30;99.90;;;;;;5014052;28;20593;-92
2023/07/16 03:50:18;;;;;;;4.27;1.73;;;17.10;99.90;;;;;;5013924;28;20285;-92
2023/07/16 03:52:44;;;;;;;4.00;1.80;;;17.40;99.90;;;;;;5020152;28;20621;-91
2023/07/16 03:55:10;;;;;;;5.47;1.80;;;17.40;99.90;;;;;;5021625;28;20204;-91
2023/07/16 03:57:35;;;;;;;8.53;2.20;;;18.20;99.90;;;;;;5015626;28;20181;-92
2023/07/16 04:00:04;;;;;;;11.67;2.33;;;17.00;99.90;;;;;;5014391;28;20224;-92
2023/07/16 04:02:29;;;;;;;3.30;1.70;;;17.00;99.90;;;;;;5014562;28;20189;-92
2023/07/16 04:04:55;;;;;;;3.90;1.67;;;16.90;99.90;;;;;;5014019;28;20739;-92
2023/07/16 04:07:20;;;;;;;7.53;2.20;;;16.90;99.90;;;;;;5014155;28;20200;-92
2023/07/16 04:09:47;;;;;;;7.93;2.33;;;16.80;99.90;;;;;;5013953;28;20675;-91
2023/07/16 04:12:12;;;;;;;4.80;2.00;;;16.90;99.90;;;;;;5014014;28;20200;-92
2023/07/16 04:14:38;;;;;;;7.37;2.30;;;16.90;99.90;;;;;;5013726;28;20183;-92
2023/07/16 04:17:04;;;;;;;8.43;2.50;;;16.80;99.90;;;;;;5014744;28;20615;-92
2023/07/16 04:19:29;;;;;;;8.77;2.30;;;16.90;99.90;;;;;;5014429;28;20574;-92
2023/07/16 04:21:55;;;;;;;8.43;2.23;;;17.20;99.90;;;;;;5013704;28;20189;-91
2023/07/16 04:24:21;;;;;;;6.80;2.80;;;16.90;99.90;;;;;;5015076;28;20185;-92
2023/07/16 04:26:46;;;;;;;5.67;2.13;;;17.00;99.90;;;;;;5013817;28;20540;-92
2023/07/16 04:29:12;;;;;;;6.60;2.20;;;16.90;99.90;;;;;;5015563;28;20181;-92
2023/07/16 04:31:37;;;;;;;7.00;2.47;;;16.80;99.90;;;;;;5013446;28;20582;-91
2023/07/16 04:34:03;;;;;;;7.50;2.13;;;16.80;99.90;;;;;;5013559;28;20261;-92
2023/07/16 04:36:28;;;;;;;5.20;1.93;;;16.70;99.90;;;;;;5013562;28;20173;-91
2023/07/16 04:38:54;;;;;;;8.17;2.30;;;16.90;99.90;;;;;;5014874;28;20172;-92
2023/07/16 04:41:19;;;;;;;6.00;2.30;;;17.00;99.90;;;;;;5014495;28;20220;-92
2023/07/16 04:43:45;;;;;;;7.93;2.43;;;16.90;99.90;;;;;;5013284;28;20185;-92
2023/07/16 04:46:11;;;;;;;6.93;2.47;;;16.80;99.90;;;;;;5013685;28;20177;-92
2023/07/16 04:48:37;;;;;;;2.60;2.00;;;16.90;99.90;;;;;;5013654;28;20207;-92
2023/07/16 04:51:02;;;;;;;5.27;2.40;;;16.80;99.90;;;;;;5013245;28;20208;-92
2023/07/16 04:53:28;;;;;;;5.90;2.30;;;16.80;99.90;;;;;;5012988;28;20184;-92
2023/07/16 04:55:54;;;;;;;7.53;2.37;;;16.90;99.90;;;;;;5017709;28;20169;-91
2023/07/16 04:58:19;;;;;;;5.97;2.00;;;17.10;99.90;;;;;;5023267;28;20173;-91
2023/07/16 05:00:45;;;;;;;5.93;2.23;;;16.90;99.90;;;;;;5035964;28;20241;-91
2023/07/16 05:03:11;;;;;;;14.67;2.60;;;16.90;99.90;;;;;;5034115;28;20177;-91
2023/07/16 05:05:36;;;;;;;6.37;2.43;;;16.90;99.90;;;;;;5028220;28;20170;-92
2023/07/16 05:08:02;;;;;;;5.37;2.27;;;16.90;99.90;;;;;;5017047;28;20615;-91
2023/07/16 05:10:28;;;;;;;7.47;2.93;;;17.00;99.90;;;;;;5014136;28;20201;-92
2023/07/16 05:12:53;;;;;;;6.27;2.40;;;16.90;99.90;;;;;;5013176;28;20204;-91
2023/07/16 05:15:19;;;;;;;8.50;2.30;;;17.00;99.90;;;;;;5012830;28;20264;-91
2023/07/16 05:17:45;;;;;;;7.93;2.50;;;17.10;99.90;;;;;;5012474;28;20536;-92
2023/07/16 05:20:11;;;;;;;6.53;2.50;;;17.00;99.90;;;;;;5013854;28;20255;-92
2023/07/16 05:22:36;;;;;;;8.90;2.50;;;17.00;99.90;;;;;;5012778;28;20192;-90
2023/07/16 05:25:02;;;;;;;9.33;2.37;;;17.00;99.90;;;;;;5012814;28;20191;-90
2023/07/16 05:27:28;;;;;;;11.50;2.47;;;17.10;99.90;;;;;;5012818;28;20247;-90
2023/07/16 05:29:54;;;;;;;6.90;2.63;;;17.90;99.90;;;;;;5012714;28;20208;-90
2023/07/16 05:32:19;;;;;;;10.10;2.60;;;17.10;99.90;;;;;;5012642;28;20690;-91
2023/07/16 05:34:45;;;;;;;7.67;2.50;;;17.40;99.90;;;;;;5012592;28;20185;-91
2023/07/16 05:37:11;;;;;;;9.13;2.57;;;17.40;99.90;;;;;;5012731;28;20590;-91
2023/07/16 05:39:37;;;;;;;7.33;2.90;;;17.50;99.90;;;;;;5012011;28;20742;-91
2023/07/16 05:42:03;;;;;;;9.97;2.73;;;17.30;99.90;;;;;;5016068;28;20204;-90
2023/07/16 05:44:29;;;;;;;7.67;2.77;;;17.40;99.90;;;;;;5014153;28;20267;-90
2023/07/16 05:46:55;;;;;;;8.80;3.00;;;17.40;93.00;;;;;;5012264;28;20282;-90
2023/07/16 05:49:20;;;;;;;8.07;2.80;;;17.50;1.00;;;;;;5013449;28;20200;-92
2023/07/16 05:51:46;;;;;;;7.13;2.77;;;17.40;99.90;;;;;;5012307;28;20674;-91
2023/07/16 05:54:11;;;;;;;7.20;2.83;;;17.60;99.90;;;;;;5012269;28;20181;-92
2023/07/16 05:56:37;;;;;;;8.73;2.67;;;17.60;1.00;;;;;;5012451;28;20193;-91
2023/07/16 05:59:02;;;;;;;6.80;3.20;;;17.50;1.00;;;;;;5012361;28;20173;-92
2023/07/16 06:01:28;;;;;;;8.47;3.73;;;17.60;80.90;;;;;;5012391;28;20566;-92
2023/07/16 06:03:53;;;;;;;9.13;2.70;;;17.80;1.00;;;;;;5011035;28;20196;-93
2023/07/16 06:06:19;;;;;;;11.70;3.27;;;17.70;1.00;;;;;;5015755;28;20200;-93
2023/07/16 06:08:45;;;;;;;5.10;2.63;;;18.10;1.00;;;;;;5015798;28;20176;-92
2023/07/16 06:11:12;;;;;;;11.90;3.70;;;17.90;99.90;;;;;;5017256;28;20208;-93
2023/07/16 06:13:37;;;;;;;5.37;3.03;;;17.80;1.00;;;;;;5015694;28;20177;-92
2023/07/16 06:16:03;;;;;;;6.93;2.90;;;18.00;99.90;;;;;;5014678;28;20647;-92
2023/07/16 06:18:29;;;;;;;11.60;3.63;;;17.80;46.80;;;;;;5016984;28;20251;-92
2023/07/16 06:20:55;;;;;;;9.10;3.63;;;17.90;99.90;;;;;;5016857;28;20203;-92
2023/07/16 06:23:20;;;;;;;6.80;3.13;;;17.80;24.80;;;;;;5015495;28;20262;-92
2023/07/16 06:25:48;;;;;;;7.63;3.50;;;17.90;99.90;;;;;;5015493;28;20184;-90
2023/07/16 06:28:14;;;;;;;8.20;3.30;;;18.10;99.90;;;;;;5015293;28;20209;-91
2023/07/16 06:30:40;;;;;;;6.77;3.23;;;17.90;95.00;;;;;;5016478;28;20264;-92
2023/07/16 06:33:05;;;;;;;7.77;3.90;;;17.80;47.30;;;;;;5015520;28;20697;-93
2023/07/16 06:35:31;;;;;;;8.53;3.27;;;18.20;99.90;;;;;;5014667;28;20189;-90
2023/07/16 06:37:56;;;;;;;7.53;3.60;;;18.30;79.80;;;;;;5015282;28;20216;-91
2023/07/16 06:40:24;;;;;;;7.43;3.77;;;17.90;1.00;;;;;;5014877;28;20197;-91
2023/07/16 06:42:50;;;;;;;12.87;3.93;;;18.30;1.00;;;;;;5015216;28;20177;-93
2023/07/16 06:45:17;;;;;;;9.73;4.13;;;18.10;1.00;;;;;;5013487;28;20184;-91
2023/07/16 06:47:43;;;;;;;10.60;4.23;;;18.30;1.00;;;;;;5014980;28;20175;-92
2023/07/16 06:50:09;;;;;;;8.00;4.07;;;18.20;99.90;;;;;;5015238;28;20189;-93
2023/07/16 06:52:35;;;;;;;7.33;4.10;;;18.20;1.00;;;;;;5015583;28;20504;-91
2023/07/16 06:55:00;;;;;;;8.17;4.00;;;18.50;1.00;;;;;;5014196;28;20200;-91
2023/07/16 06:57:26;;;;;;;11.40;4.30;;;18.20;1.00;;;;;;5016349;28;20550;-91
2023/07/16 06:59:52;;;;;;;13.07;4.00;;;18.30;57.50;;;;;;5014354;28;20223;-90
2023/07/16 07:02:18;;;;;;;12.93;4.40;;;18.40;1.00;;;;;;5014681;28;20319;-91
2023/07/16 07:04:44;;;;;;;8.77;3.80;;;18.40;1.00;;;;;;5014042;28;20623;-90
2023/07/16 07:07:10;;;;;;;8.63;3.70;;;18.40;99.90;;;;;;5014263;28;20247;-90
2023/07/16 07:09:35;;;;;;;9.07;3.70;;;18.40;99.90;;;;;;5014471;28;20300;-91
2023/07/16 07:12:01;;;;;;;11.83;4.20;;;18.50;99.90;;;;;;5014075;28;20213;-90
2023/07/16 07:14:27;;;;;;;8.00;3.63;;;18.50;1.00;;;;;;5013718;28;20181;-91
2023/07/16 07:16:52;;;;;;;10.67;4.53;;;18.60;1.00;;;;;;5014195;28;20186;-91
2023/07/16 07:19:18;;;;;;;11.97;4.27;;;18.90;99.90;;;;;;5015538;28;20802;-91
2023/07/16 07:21:44;;;;;;;10.50;4.60;;;18.70;99.90;;;;;;5014073;28;20231;-91
2023/07/16 07:24:09;;;;;;;9.57;4.07;;;19.00;99.90;;;;;;5012330;28;20648;-91
2023/07/16 07:26:35;;;;;;;12.83;4.33;;;19.00;99.90;;;;;;5015457;28;20219;-91
2023/07/16 07:29:00;;;;;;;8.90;3.60;;;18.70;64.80;;;;;;5014531;28;20180;-91
2023/07/16 07:31:26;;;;;;;7.33;3.90;;;19.70;29.10;;;;;;5025776;28;20343;-92
2023/07/16 07:33:53;;;;;;;10.03;4.27;;;18.90;65.70;;;;;;5014278;28;20177;-91
2023/07/16 07:36:19;;;;;;;6.03;3.80;;;18.80;99.90;;;;;;5013773;28;20239;-91
2023/07/16 07:38:45;;;;;;;9.17;3.60;;;19.20;99.90;;;;;;5015145;28;20252;-90
2023/07/16 07:41:10;;;;;;;10.57;4.43;;;19.30;55.20;;;;;;5014267;28;20685;-91
2023/07/16 07:43:36;;;;;;;10.07;4.60;;;19.00;99.90;;;;;;5011992;28;20520;-91
2023/07/16 07:46:01;;;;;;;12.57;4.03;;;19.20;1.00;;;;;;5013893;28;20582;-92
2023/07/16 07:48:27;;;;;;;11.87;3.53;;;19.20;1.00;;;;;;5013934;28;20177;-92
2023/07/16 07:50:52;;;;;;;9.23;4.10;;;19.20;1.00;;;;;;5013808;28;20248;-91
2023/07/16 07:53:18;;;;;;;9.03;4.30;;;19.20;1.00;;;;;;5013934;28;20169;-91
2023/07/16 07:55:45;;;;;;;9.43;4.23;;;19.30;8.20;;;;;;5011090;28;20177;-91
2023/07/16 07:58:10;;;;;;;11.23;4.63;;;19.40;1.00;;;;;;5013661;28;20168;-91
2023/07/16 08:00:36;;;;;;;7.93;4.30;;;19.20;1.00;;;;;;5013407;28;20213;-91
2023/07/16 08:03:02;;;;;;;5.90;4.13;;;19.20;1.00;;;;;;5013028;28;20185;-91
2023/07/16 08:05:27;;;;;;;9.87;4.00;;;19.30;1.00;;;;;;5014730;28;20178;-90
2023/07/16 08:07:53;;;;;;;7.43;3.90;;;19.40;1.00;;;;;;5010591;28;20573;-91
2023/07/16 08:10:19;;;;;;;8.73;3.97;;;19.40;1.00;;;;;;5013875;28;20639;-91
2023/07/16 08:12:45;;;;;;;10.40;4.17;;;19.50;1.00;;;;;;5013128;28;20201;-90
2023/07/16 08:15:14;;;;;;;6.47;4.00;;;19.50;1.00;;;;;;5005294;28;20188;-88
2023/07/16 08:17:44;;;;;;;10.33;4.10;;;19.60;1.00;;;;;;5004868;28;20548;-90
2023/07/16 08:20:10;;;;;;;9.53;4.40;;;19.60;99.90;;;;;;5012642;28;20687;-90
2023/07/16 08:22:36;;;;;;;11.33;4.00;;;19.60;1.00;;;;;;5003071;28;20195;-91
2023/07/16 08:25:03;;;;;;;11.27;4.17;;;19.60;1.00;;;;;;5012376;28;20185;-90
2023/07/16 08:27:29;;;;;;;11.23;4.33;;;19.50;1.00;;;;;;5003295;28;20264;-92
2023/07/16 08:29:54;;;;;;;14.37;4.67;;;19.70;1.00;;;;;;5012612;28;20602;-92
2023/07/16 08:32:21;;;;;;;13.30;3.80;;;19.80;1.00;;;;;;5012142;28;20197;-91
2023/07/16 08:34:46;;;;;;;7.50;4.47;;;19.90;1.00;;;;;;5013832;28;20169;-91
2023/07/16 08:37:12;;;;;;;8.53;4.00;;;19.90;1.00;;;;;;5011083;28;20184;-91
2023/07/16 08:39:38;;;;;;;7.03;3.60;;;20.00;99.90;;;;;;5011126;28;20204;-92
2023/07/16 08:42:04;;;;;;;8.50;3.93;;;20.00;1.00;;;;;;5012105;28;20276;-92
2023/07/16 08:44:30;;;;;;;7.90;4.20;;;20.00;1.00;;;;;;5012235;28;20169;-91
2023/07/16 08:46:56;;;;;;;7.17;3.80;;;20.00;1.00;;;;;;5012407;28;20647;-91
2023/07/16 08:49:22;;;;;;;8.33;4.13;;;20.10;1.00;;;;;;5011339;28;20197;-91
2023/07/16 08:51:48;;;;;;;7.80;3.37;;;20.10;1.00;;;;;;5012236;28;20667;-92
2023/07/16 08:54:19;;;;;;;8.17;3.70;;;20.10;99.90;;;;;;5012238;28;20284;-91
2023/07/16 08:56:47;;;;;;;11.93;3.83;;;20.30;99.90;;;;;;5012425;28;20542;-92
2023/07/16 08:59:14;;;;;;;15.67;4.00;;;20.20;99.90;;;;;;5012083;28;20184;-91
2023/07/16 09:01:39;;;;;;;6.83;3.73;;;20.00;99.90;;;;;;5012480;28;20181;-91
2023/07/16 09:04:05;;;;;;;9.83;3.77;;;20.30;99.90;;;;;;5013781;28;20203;-91
2023/07/16 09:06:31;;;;;;;9.80;3.63;;;20.30;99.90;;;;;;5013841;28;20177;-90
2023/07/16 09:08:56;;;;;;;7.70;3.37;;;20.40;99.90;;;;;;5011615;28;20189;-91
2023/07/16 09:11:22;;;;;;;9.37;3.67;;;20.60;99.90;;;;;;5013977;28;20299;-90
2023/07/16 09:13:48;;;;;;;7.90;3.50;;;20.70;99.90;;;;;;5012163;28;20181;-91
2023/07/16 09:16:17;;;;;;;9.77;4.20;;;20.70;99.90;;;;;;5013352;28;20183;-91
2023/07/16 09:18:42;;;;;;;6.87;3.27;;;20.90;99.90;;;;;;5019011;28;20181;-91
2023/07/16 09:21:08;;;;;;;5.80;3.40;;;21.10;99.90;;;;;;5016154;28;20205;-91
2023/07/16 09:23:34;;;;;;;8.03;3.90;;;21.20;99.90;;;;;;5013930;28;20218;-90
2023/07/16 09:26:00;;;;;;;5.37;3.03;;;21.20;99.90;;;;;;5012169;28;20644;-90
2023/07/16 09:28:25;;;;;;;10.80;3.30;;;21.30;99.90;;;;;;5012063;28;20236;-90
2023/07/16 09:30:52;;;;;;;8.67;3.40;;;21.40;99.90;;;;;;5012547;28;20694;-90
2023/07/16 09:33:20;;;;;;;8.53;3.83;;;21.30;99.90;;;;;;5012078;28;20177;-89
2023/07/16 09:35:49;;;;;;;8.73;3.70;;;21.10;99.90;;;;;;5011898;28;20199;-89
2023/07/16 09:38:15;;;;;;;7.53;3.97;;;21.40;99.90;;;;;;5010984;28;20185;-90
2023/07/16 09:40:42;;;;;;;7.53;3.90;;;21.50;99.90;;;;;;5015470;28;20201;-90
2023/07/16 09:43:09;;;;;;;11.37;4.00;;;21.40;99.90;;;;;;5015930;28;20183;-89
2023/07/16 09:45:34;;;;;;;7.77;3.37;;;21.50;99.90;;;;;;5000555;28;20648;-89
2023/07/16 09:48:00;;;;;;;6.67;3.33;;;21.60;99.90;;;;;;5013017;28;20181;-89
2023/07/16 09:50:29;;;;;;;8.63;3.67;;;21.70;99.90;;;;;;4997955;28;20525;-90
2023/07/16 09:52:56;;;;;;;7.60;3.67;;;21.70;99.90;;;;;;5012787;28;20676;-92
2023/07/16 09:55:23;;;;;;;6.37;3.30;;;21.80;88.20;;;;;;5011840;28;20196;-90
2023/07/16 09:57:52;;;;;;;8.47;3.27;;;21.60;99.90;;;;;;5000053;28;20208;-92
2023/07/16 10:00:20;;;;;;;6.70;3.67;;;21.50;99.90;;;;;;5015604;28;20224;-91
2023/07/16 10:02:46;;;;;;;5.07;3.30;;;21.60;99.90;;;;;;5015828;28;20188;-91
2023/07/16 10:05:35;;;;;;;7.70;2.90;;;21.60;99.90;;;;;;5014870;28;20188;-91
2023/07/16 10:08:00;;;;;;;6.03;3.20;;;21.70;1.00;;;;;;5017052;28;20247;-91
2023/07/16 10:10:38;;;;;;;9.00;3.30;;;21.70;29.40;;;;;;5017201;28;20629;-91
2023/07/16 10:13:04;;;;;;;7.03;3.33;;;21.60;99.90;;;;;;5017442;28;20193;-91
2023/07/16 10:15:30;;;;;;;5.40;3.20;;;21.60;99.90;;;;;;5015352;28;20192;-91
2023/07/16 10:17:56;;;;;;;7.87;3.80;;;21.50;99.90;;;;;;5017000;28;20177;-92
2023/07/16 10:20:34;;;;;;;7.20;3.10;;;21.70;99.90;;;;;;5015403;28;20204;-91
2023/07/16 10:23:14;;;;;;;8.30;3.20;;;21.90;92.80;;;;;;5017097;28;20200;-92
2023/07/16 10:25:40;;;;;;;7.57;3.63;;;21.80;99.90;;;;;;5015450;28;20184;-91
2023/07/16 10:28:06;;;;;;;5.83;3.40;;;21.90;81.80;;;;;;5018163;28;20180;-92
2023/07/16 10:30:33;;;;;;;8.83;3.53;;;21.90;99.90;;;;;;5018546;28;20208;-91
2023/07/16 10:33:02;;;;;;;8.67;4.00;;;22.00;99.90;;;;;;5018599;28;20211;-91
2023/07/16 10:35:27;;;;;;;7.37;3.43;;;22.00;99.90;;;;;;5016378;28;20184;-90
2023/07/16 10:37:54;;;;;;;5.37;3.20;;;22.20;66.50;;;;;;5016755;28;20757;-91
2023/07/16 10:40:20;;;;;;;6.30;3.27;;;22.10;99.90;;;;;;5017205;28;20200;-91
2023/07/16 10:42:48;;;;;;;6.23;3.63;;;22.20;99.90;;;;;;5017224;28;20177;-92
2023/07/16 10:45:14;;;;;;;9.27;3.30;;;22.20;1.00;;;;;;5015954;28;20173;-92
2023/07/16 10:47:55;;;;;;;7.37;3.73;;;22.20;74.10;;;;;;5017692;28;20177;-92
2023/07/16 10:50:23;;;;;;;5.53;3.03;;;22.20;1.00;;;;;;5016588;28;20223;-91
2023/07/16 10:52:56;;;;;;;7.77;3.73;;;22.10;1.00;;;;;;5016804;28;20578;-91
2023/07/16 10:55:23;;;;;;;8.30;3.40;;;22.10;32.90;;;;;;5017107;28;20181;-91
2023/07/16 10:57:49;;;;;;;7.80;3.37;;;22.20;11.50;;;;;;5018074;28;20184;-92
2023/07/16 11:00:16;;;;;;;4.77;3.07;;;22.00;1.00;;;;;;5017124;28;20205;-92
2023/07/16 11:02:43;;;;;;;9.63;3.20;;;22.10;1.00;;;;;;5017858;28;20227;-92
2023/07/16 11:05:13;;;;;;;6.73;3.20;;;21.90;1.00;;;;;;5018907;28;20246;-93
2023/07/16 11:07:49;;;;;;;6.70;3.40;;;22.00;1.00;;;;;;5018459;28;20223;-92
2023/07/16 11:10:18;;;;;;;7.87;3.20;;;22.00;1.00;;;;;;5019040;28;20697;-92
2023/07/16 11:12:44;;;;;;;6.93;2.80;;;22.10;1.00;;;;;;5021331;28;20273;-93
2023/07/16 11:15:10;;;;;;;6.03;3.23;;;22.20;1.00;;;;;;5017017;28;20185;-93
2023/07/16 11:17:39;;;;;;;4.10;3.03;;;22.10;1.00;;;;;;5018118;28;20180;-91
2023/07/16 11:20:08;;;;;;;5.50;2.77;;;22.30;25.60;;;;;;5017783;28;20188;-92
2023/07/16 11:22:38;;;;;;;3.90;3.10;;;22.20;1.00;;;;;;5018453;28;20188;-92
2023/07/16 11:25:11;;;;;;;6.73;3.20;;;22.10;1.00;;;;;;5017843;28;20247;-92
2023/07/16 11:27:39;;;;;;;6.83;3.17;;;22.30;1.00;;;;;;5017638;28;20193;-92
2023/07/16 11:30:06;;;;;;;6.60;3.03;;;22.10;1.00;;;;;;5017232;28;20213;-92
2023/07/16 11:32:42;;;;;;;6.17;3.00;;;22.10;1.00;;;;;;5017606;28;20599;-93
2023/07/16 11:35:11;;;;;;;5.67;3.20;;;22.40;2.90;;;;;;5017092;28;20728;-92
2023/07/16 11:37:36;;;;;;;5.47;3.00;;;22.20;15.70;;;;;;5017427;28;20698;-92
2023/07/16 11:40:03;;;;;;;6.83;3.00;;;22.10;1.00;;;;;;5017583;28;20193;-93
2023/07/16 11:42:33;;;;;;;5.23;2.97;;;22.20;1.00;;;;;;5018008;28;20264;-92
2023/07/16 11:45:00;;;;;;;6.37;3.00;;;22.10;1.00;;;;;;5016645;28;20200;-93
2023/07/16 11:47:26;;;;;;;5.27;2.73;;;22.10;1.00;;;;;;5017226;28;20216;-93
2023/07/16 11:49:52;;;;;;;5.67;2.97;;;22.20;1.00;;;;;;5017274;28;20219;-93
2023/07/16 11:52:28;;;;;;;6.37;3.17;;;22.30;1.00;;;;;;5017481;28;20670;-93
2023/07/16 11:54:59;;;;;;;5.43;2.73;;;22.50;1.00;;;;;;5014905;28;20177;-90
2023/07/16 11:57:25;;;;;;;4.03;2.80;;;22.60;1.00;;;;;;5012014;28;20678;-91
2023/07/16 11:59:50;;;;;;;6.70;3.10;;;23.10;1.00;;;;;;5015619;28;20212;-91
2023/07/16 12:02:16;;;;;;;6.70;3.07;;;22.80;1.00;;;;;;5015446;28;20588;-92
2023/07/16 12:04:42;;;;;;;7.77;3.00;;;22.60;1.00;;;;;;5014558;28;20181;-91
2023/07/16 12:07:07;;;;;;;5.13;2.70;;;22.70;1.00;;;;;;5013955;28;20276;-92
2023/07/16 12:09:33;;;;;;;5.03;3.10;;;22.60;1.00;;;;;;5016375;28;20193;-91
2023/07/16 12:12:00;;;;;;;6.73;3.20;;;22.60;1.00;;;;;;5016084;28;20208;-92
2023/07/16 12:14:26;;;;;;;6.17;2.70;;;22.80;1.00;;;;;;5014831;28;20200;-91
2023/07/16 12:16:51;;;;;;;6.23;2.80;;;22.50;1.00;;;;;;5013515;28;20238;-92
2023/07/16 12:19:17;;;;;;;7.47;2.57;;;22.50;1.00;;;;;;5016239;28;20693;-91
2023/07/16 12:21:43;;;;;;;7.17;3.10;;;22.50;1.00;;;;;;5015610;28;20177;-92
2023/07/16 12:24:08;;;;;;;4.70;2.97;;;22.50;1.00;;;;;;5015984;28;20322;-92
2023/07/16 12:26:34;;;;;;;6.23;2.93;;;22.70;1.00;;;;;;5015772;28;20192;-92
2023/07/16 12:29:02;;;;;;;4.10;2.93;;;22.50;1.00;;;;;;5016056;28;20661;-92
2023/07/16 12:31:28;;;;;;;6.50;3.20;;;22.60;1.00;;;;;;5015709;28;20213;-92
2023/07/16 12:33:54;;;;;;;5.73;2.80;;;22.70;1.00;;;;;;5016146;28;20264;-92
2023/07/16 12:36:19;;;;;;;5.00;3.00;;;22.60;1.00;;;;;;5015475;28;20169;-92
2023/07/16 12:38:45;;;;;;;4.70;2.47;;;22.50;1.00;;;;;;5012729;28;20177;-91
2023/07/16 12:41:10;;;;;;;9.27;3.00;;;22.70;1.00;;;;;;5014840;28;20556;-91
2023/07/16 12:43:36;;;;;;;4.77;2.80;;;22.50;1.00;;;;;;5014749;28;20190;-90